sensor_id;sensor_type;location;lat;lon;timestamp;P1;durP1;ratioP1;P2;durP2;ratioP2
74777;SDS011;63298;53.164;8.610;2023-05-19T00:01:24;9.73;;;1.92;;
74777;SDS011;63298;53.164;8.610;2023-05-19T00:03:53;7.63;;;2.45;;
74777;SDS011;63298;53.164;8.610;2023-05-19T00:06:21;11.73;;;2.53;;
74777;SDS011;63298;53.164;8.610;2023-05-19T00:08:48;5.75;;;2.28;;
74777;SDS011;63298;53.164;8.610;2023-05-19T00:11:14;5.20;;;2.08;;
74777;SDS011;63298;53.164;8.610;2023-05-19T00:13:39;9.60;;;2.80;;
74777;SDS011;63298;53.164;8.610;2023-05-19T00:16:05;6.93;;;2.40;;
74777;SDS011;63298;53.164;8.610;2023-05-19T00:18:30;4.68;;;2.17;;
74777;SDS011;63298;53.164;8.610;2023-05-19T00:20:56;6.00;;;1.95;;
74777;SDS011;63298;53.164;8.610;2023-05-19T00:23:21;8.53;;;2.87;;
74777;SDS011;63298;53.164;8.610;2023-05-19T00:25:46;7.28;;;2.20;;
74777;SDS011;63298;53.164;8.610;2023-05-19T00:28:12;9.68;;;2.22;;
74777;SDS011;63298;53.164;8.610;2023-05-19T00:30:37;8.23;;;2.10;;
74777;SDS011;63298;53.164;8.610;2023-05-19T00:33:02;9.93;;;2.72;;
74777;SDS011;63298;53.164;8.610;2023-05-19T00:35:28;6.40;;;2.15;;
74777;SDS011;63298;53.164;8.610;2023-05-19T00:37:53;7.15;;;2.50;;
74777;SDS011;63298;53.164;8.610;2023-05-19T00:40:18;6.07;;;2.20;;
74777;SDS011;63298;53.164;8.610;2023-05-19T00:42:44;5.57;;;1.90;;
74777;SDS011;63298;53.164;8.610;2023-05-19T00:45:09;10.40;;;2.08;;
74777;SDS011;63298;53.164;8.610;2023-05-19T00:47:34;10.45;;;2.83;;
74777;SDS011;63298;53.164;8.610;2023-05-19T00:50:00;4.20;;;2.00;;
74777;SDS011;63298;53.164;8.610;2023-05-19T00:52:25;7.47;;;2.47;;
74777;SDS011;63298;53.164;8.610;2023-05-19T00:54:51;5.90;;;2.30;;
74777;SDS011;63298;53.164;8.610;2023-05-19T00:57:17;5.20;;;2.13;;
74777;SDS011;63298;53.164;8.610;2023-05-19T00:59:43;5.07;;;2.22;;
74777;SDS011;63298;53.164;8.610;2023-05-19T01:02:09;4.88;;;2.13;;
74777;SDS011;63298;53.164;8.610;2023-05-19T01:04:34;7.57;;;2.30;;
74777;SDS011;63298;53.164;8.610;2023-05-19T01:07:01;5.53;;;2.38;;
74777;SDS011;63298;53.164;8.610;2023-05-19T01:09:27;7.68;;;2.08;;
74777;SDS011;63298;53.164;8.610;2023-05-19T01:11:52;3.90;;;2.42;;
74777;SDS011;63298;53.164;8.610;2023-05-19T01:14:18;6.88;;;2.20;;
74777;SDS011;63298;53.164;8.610;2023-05-19T01:16:57;8.85;;;2.50;;
74777;SDS011;63298;53.164;8.610;2023-05-19T01:19:34;6.57;;;1.95;;
74777;SDS011;63298;53.164;8.610;2023-05-19T01:33:05;7.88;;;2.33;;
74777;SDS011;63298;53.164;8.610;2023-05-19T01:35:33;8.77;;;2.30;;
74777;SDS011;63298;53.164;8.610;2023-05-19T01:38:00;4.22;;;1.88;;
74777;SDS011;63298;53.164;8.610;2023-05-19T01:40:27;6.72;;;2.03;;
74777;SDS011;63298;53.164;8.610;2023-05-19T01:42:55;8.98;;;2.35;;
74777;SDS011;63298;53.164;8.610;2023-05-19T01:45:22;4.20;;;2.30;;
74777;SDS011;63298;53.164;8.610;2023-05-19T01:47:49;8.65;;;2.63;;
74777;SDS011;63298;53.164;8.610;2023-05-19T01:50:16;5.50;;;2.00;;
74777;SDS011;63298;53.164;8.610;2023-05-19T01:52:41;6.38;;;2.00;;
74777;SDS011;63298;53.164;8.610;2023-05-19T01:55:07;7.00;;;2.00;;
74777;SDS011;63298;53.164;8.610;2023-05-19T01:57:46;6.35;;;2.40;;
74777;SDS011;63298;53.164;8.610;2023-05-19T02:11:39;6.28;;;2.08;;
74777;SDS011;63298;53.164;8.610;2023-05-19T02:14:12;4.20;;;2.00;;
74777;SDS011;63298;53.164;8.610;2023-05-19T02:16:43;5.88;;;2.38;;
74777;SDS011;63298;53.164;8.610;2023-05-19T02:21:56;5.63;;;2.25;;
74777;SDS011;63298;53.164;8.610;2023-05-19T02:24:21;7.75;;;2.00;;
74777;SDS011;63298;53.164;8.610;2023-05-19T02:26:49;5.57;;;2.45;;
74777;SDS011;63298;53.164;8.610;2023-05-19T02:29:15;6.93;;;2.45;;
74777;SDS011;63298;53.164;8.610;2023-05-19T02:31:41;6.88;;;2.38;;
74777;SDS011;63298;53.164;8.610;2023-05-19T02:34:06;6.07;;;2.00;;
74777;SDS011;63298;53.164;8.610;2023-05-19T02:36:32;7.93;;;2.40;;
74777;SDS011;63298;53.164;8.610;2023-05-19T02:38:58;9.23;;;2.15;;
74777;SDS011;63298;53.164;8.610;2023-05-19T02:41:24;5.20;;;1.80;;
74777;SDS011;63298;53.164;8.610;2023-05-19T02:43:50;9.80;;;2.40;;
74777;SDS011;63298;53.164;8.610;2023-05-19T02:46:15;4.90;;;1.92;;
74777;SDS011;63298;53.164;8.610;2023-05-19T02:48:41;5.43;;;2.13;;
74777;SDS011;63298;53.164;8.610;2023-05-19T02:51:06;8.48;;;2.35;;
74777;SDS011;63298;53.164;8.610;2023-05-19T02:53:31;8.65;;;2.30;;
74777;SDS011;63298;53.164;8.610;2023-05-19T02:55:57;8.00;;;2.40;;
74777;SDS011;63298;53.164;8.610;2023-05-19T02:58:22;4.55;;;2.03;;
74777;SDS011;63298;53.164;8.610;2023-05-19T03:00:48;6.78;;;2.40;;
74777;SDS011;63298;53.164;8.610;2023-05-19T03:03:13;3.17;;;2.00;;
74777;SDS011;63298;53.164;8.610;2023-05-19T03:05:38;9.38;;;2.63;;
74777;SDS011;63298;53.164;8.610;2023-05-19T03:08:05;8.18;;;2.25;;
74777;SDS011;63298;53.164;8.610;2023-05-19T03:10:30;8.35;;;3.25;;
74777;SDS011;63298;53.164;8.610;2023-05-19T03:12:55;5.43;;;2.50;;
74777;SDS011;63298;53.164;8.610;2023-05-19T03:15:21;4.63;;;1.93;;
74777;SDS011;63298;53.164;8.610;2023-05-19T03:17:46;4.97;;;2.00;;
74777;SDS011;63298;53.164;8.610;2023-05-19T03:20:11;7.10;;;2.47;;
74777;SDS011;63298;53.164;8.610;2023-05-19T03:22:37;4.60;;;2.22;;
74777;SDS011;63298;53.164;8.610;2023-05-19T03:25:02;6.47;;;2.20;;
74777;SDS011;63298;53.164;8.610;2023-05-19T03:27:28;6.38;;;1.92;;
74777;SDS011;63298;53.164;8.610;2023-05-19T03:29:53;10.10;;;2.60;;
74777;SDS011;63298;53.164;8.610;2023-05-19T03:32:18;4.30;;;2.05;;
74777;SDS011;63298;53.164;8.610;2023-05-19T03:34:44;7.43;;;2.20;;
74777;SDS011;63298;53.164;8.610;2023-05-19T03:37:09;2.13;;;1.93;;
74777;SDS011;63298;53.164;8.610;2023-05-19T03:39:34;10.07;;;2.40;;
74777;SDS011;63298;53.164;8.610;2023-05-19T03:42:00;7.53;;;2.38;;
74777;SDS011;63298;53.164;8.610;2023-05-19T03:44:25;9.50;;;2.67;;
74777;SDS011;63298;53.164;8.610;2023-05-19T03:46:50;3.17;;;2.30;;
74777;SDS011;63298;53.164;8.610;2023-05-19T03:49:16;7.40;;;2.13;;
74777;SDS011;63298;53.164;8.610;2023-05-19T03:51:41;6.45;;;2.13;;
74777;SDS011;63298;53.164;8.610;2023-05-19T03:54:06;5.18;;;2.00;;
74777;SDS011;63298;53.164;8.610;2023-05-19T03:56:31;9.55;;;2.50;;
74777;SDS011;63298;53.164;8.610;2023-05-19T03:58:57;6.05;;;2.30;;
74777;SDS011;63298;53.164;8.610;2023-05-19T04:01:22;4.53;;;2.25;;
74777;SDS011;63298;53.164;8.610;2023-05-19T04:03:47;7.75;;;2.50;;
74777;SDS011;63298;53.164;8.610;2023-05-19T04:06:13;5.93;;;2.23;;
74777;SDS011;63298;53.164;8.610;2023-05-19T04:08:38;6.07;;;2.30;;
74777;SDS011;63298;53.164;8.610;2023-05-19T04:11:03;5.38;;;2.22;;
74777;SDS011;63298;53.164;8.610;2023-05-19T04:13:31;7.75;;;2.28;;
74777;SDS011;63298;53.164;8.610;2023-05-19T04:15:57;4.25;;;2.05;;
74777;SDS011;63298;53.164;8.610;2023-05-19T04:18:23;3.90;;;2.20;;
74777;SDS011;63298;53.164;8.610;2023-05-19T04:20:48;11.18;;;2.97;;
74777;SDS011;63298;53.164;8.610;2023-05-19T04:23:13;9.50;;;2.20;;
74777;SDS011;63298;53.164;8.610;2023-05-19T04:25:39;9.18;;;2.53;;
74777;SDS011;63298;53.164;8.610;2023-05-19T04:28:05;8.27;;;2.20;;
74777;SDS011;63298;53.164;8.610;2023-05-19T04:30:30;7.40;;;2.22;;
74777;SDS011;63298;53.164;8.610;2023-05-19T04:32:55;10.63;;;2.50;;
74777;SDS011;63298;53.164;8.610;2023-05-19T04:35:21;6.57;;;2.10;;
74777;SDS011;63298;53.164;8.610;2023-05-19T04:37:46;7.85;;;2.25;;
74777;SDS011;63298;53.164;8.610;2023-05-19T04:40:11;10.38;;;2.22;;
74777;SDS011;63298;53.164;8.610;2023-05-19T04:42:37;7.68;;;2.50;;
74777;SDS011;63298;53.164;8.610;2023-05-19T04:45:02;4.30;;;2.10;;
74777;SDS011;63298;53.164;8.610;2023-05-19T04:47:28;7.55;;;2.13;;
74777;SDS011;63298;53.164;8.610;2023-05-19T04:49:53;6.47;;;2.50;;
74777;SDS011;63298;53.164;8.610;2023-05-19T04:52:18;6.32;;;2.20;;
74777;SDS011;63298;53.164;8.610;2023-05-19T04:54:44;8.00;;;2.28;;
74777;SDS011;63298;53.164;8.610;2023-05-19T04:57:09;8.02;;;2.10;;
74777;SDS011;63298;53.164;8.610;2023-05-19T04:59:34;3.30;;;1.93;;
74777;SDS011;63298;53.164;8.610;2023-05-19T05:02:00;3.92;;;1.60;;
74777;SDS011;63298;53.164;8.610;2023-05-19T05:04:25;7.57;;;2.50;;
74777;SDS011;63298;53.164;8.610;2023-05-19T05:06:51;7.45;;;3.58;;
74777;SDS011;63298;53.164;8.610;2023-05-19T05:09:17;7.68;;;2.45;;
74777;SDS011;63298;53.164;8.610;2023-05-19T05:11:42;5.70;;;2.63;;
74777;SDS011;63298;53.164;8.610;2023-05-19T05:14:08;7.95;;;2.35;;
74777;SDS011;63298;53.164;8.610;2023-05-19T05:16:34;6.80;;;2.28;;
74777;SDS011;63298;53.164;8.610;2023-05-19T05:19:00;7.15;;;2.55;;
74777;SDS011;63298;53.164;8.610;2023-05-19T05:21:27;6.28;;;2.70;;
74777;SDS011;63298;53.164;8.610;2023-05-19T05:23:53;13.82;;;3.30;;
74777;SDS011;63298;53.164;8.610;2023-05-19T05:26:19;10.20;;;3.00;;
74777;SDS011;63298;53.164;8.610;2023-05-19T05:28:45;11.57;;;3.20;;
74777;SDS011;63298;53.164;8.610;2023-05-19T05:31:10;5.43;;;2.67;;
74777;SDS011;63298;53.164;8.610;2023-05-19T05:33:36;10.63;;;2.65;;
74777;SDS011;63298;53.164;8.610;2023-05-19T05:36:02;8.48;;;2.55;;
74777;SDS011;63298;53.164;8.610;2023-05-19T05:38:28;5.43;;;2.50;;
74777;SDS011;63298;53.164;8.610;2023-05-19T05:40:53;6.82;;;2.67;;
74777;SDS011;63298;53.164;8.610;2023-05-19T05:43:18;6.00;;;2.38;;
74777;SDS011;63298;53.164;8.610;2023-05-19T05:45:44;8.25;;;2.85;;
74777;SDS011;63298;53.164;8.610;2023-05-19T05:48:09;6.78;;;2.45;;
74777;SDS011;63298;53.164;8.610;2023-05-19T05:50:35;13.55;;;3.83;;
74777;SDS011;63298;53.164;8.610;2023-05-19T05:53:00;8.48;;;2.70;;
74777;SDS011;63298;53.164;8.610;2023-05-19T05:55:27;8.82;;;2.63;;
74777;SDS011;63298;53.164;8.610;2023-05-19T05:57:53;8.38;;;3.15;;
74777;SDS011;63298;53.164;8.610;2023-05-19T06:00:18;7.47;;;2.67;;
74777;SDS011;63298;53.164;8.610;2023-05-19T06:02:44;6.60;;;2.72;;
74777;SDS011;63298;53.164;8.610;2023-05-19T06:05:10;10.45;;;3.05;;
74777;SDS011;63298;53.164;8.610;2023-05-19T06:07:35;6.57;;;2.70;;
74777;SDS011;63298;53.164;8.610;2023-05-19T06:10:00;4.38;;;2.38;;
74777;SDS011;63298;53.164;8.610;2023-05-19T06:12:26;8.35;;;3.00;;
74777;SDS011;63298;53.164;8.610;2023-05-19T06:14:51;8.13;;;2.72;;
74777;SDS011;63298;53.164;8.610;2023-05-19T06:17:17;4.90;;;2.40;;
74777;SDS011;63298;53.164;8.610;2023-05-19T06:19:42;3.92;;;2.33;;
74777;SDS011;63298;53.164;8.610;2023-05-19T06:22:07;8.43;;;2.77;;
74777;SDS011;63298;53.164;8.610;2023-05-19T06:24:33;13.18;;;3.15;;
74777;SDS011;63298;53.164;8.610;2023-05-19T06:26:58;10.53;;;2.90;;
74777;SDS011;63298;53.164;8.610;2023-05-19T06:29:23;8.10;;;2.80;;
74777;SDS011;63298;53.164;8.610;2023-05-19T06:31:48;6.55;;;2.50;;
74777;SDS011;63298;53.164;8.610;2023-05-19T06:34:14;6.73;;;2.20;;
74777;SDS011;63298;53.164;8.610;2023-05-19T06:36:39;9.17;;;2.60;;
74777;SDS011;63298;53.164;8.610;2023-05-19T06:39:04;7.03;;;2.43;;
74777;SDS011;63298;53.164;8.610;2023-05-19T06:41:30;8.40;;;2.13;;
74777;SDS011;63298;53.164;8.610;2023-05-19T06:43:55;8.93;;;2.15;;
74777;SDS011;63298;53.164;8.610;2023-05-19T06:46:20;9.48;;;2.30;;
74777;SDS011;63298;53.164;8.610;2023-05-19T06:48:46;9.30;;;2.15;;
74777;SDS011;63298;53.164;8.610;2023-05-19T06:51:11;8.45;;;2.30;;
74777;SDS011;63298;53.164;8.610;2023-05-19T06:53:36;6.35;;;2.03;;
74777;SDS011;63298;53.164;8.610;2023-05-19T06:56:01;7.03;;;1.95;;
74777;SDS011;63298;53.164;8.610;2023-05-19T06:58:27;5.78;;;1.85;;
74777;SDS011;63298;53.164;8.610;2023-05-19T07:00:52;7.40;;;1.80;;
74777;SDS011;63298;53.164;8.610;2023-05-19T07:03:18;11.85;;;2.10;;
74777;SDS011;63298;53.164;8.610;2023-05-19T07:05:43;11.48;;;2.45;;
74777;SDS011;63298;53.164;8.610;2023-05-19T07:08:08;7.90;;;2.10;;
74777;SDS011;63298;53.164;8.610;2023-05-19T07:10:34;5.13;;;1.90;;
74777;SDS011;63298;53.164;8.610;2023-05-19T07:12:59;4.38;;;2.03;;
74777;SDS011;63298;53.164;8.610;2023-05-19T07:15:24;11.13;;;2.30;;
74777;SDS011;63298;53.164;8.610;2023-05-19T07:17:49;10.13;;;2.35;;
74777;SDS011;63298;53.164;8.610;2023-05-19T07:20:15;5.00;;;1.90;;
74777;SDS011;63298;53.164;8.610;2023-05-19T07:22:40;5.82;;;2.10;;
74777;SDS011;63298;53.164;8.610;2023-05-19T07:25:06;6.10;;;1.92;;
74777;SDS011;63298;53.164;8.610;2023-05-19T07:27:32;6.05;;;2.00;;
74777;SDS011;63298;53.164;8.610;2023-05-19T07:29:57;10.57;;;2.47;;
74777;SDS011;63298;53.164;8.610;2023-05-19T07:32:23;9.10;;;2.35;;
74777;SDS011;63298;53.164;8.610;2023-05-19T07:34:48;5.78;;;2.08;;
74777;SDS011;63298;53.164;8.610;2023-05-19T07:37:14;9.80;;;2.72;;
74777;SDS011;63298;53.164;8.610;2023-05-19T07:39:39;9.07;;;1.95;;
74777;SDS011;63298;53.164;8.610;2023-05-19T07:42:04;3.57;;;1.73;;
74777;SDS011;63298;53.164;8.610;2023-05-19T07:44:30;6.85;;;1.80;;
74777;SDS011;63298;53.164;8.610;2023-05-19T07:46:55;5.85;;;2.03;;
74777;SDS011;63298;53.164;8.610;2023-05-19T07:49:21;5.07;;;1.50;;
74777;SDS011;63298;53.164;8.610;2023-05-19T07:51:46;4.15;;;1.90;;
74777;SDS011;63298;53.164;8.610;2023-05-19T07:54:11;5.13;;;1.73;;
74777;SDS011;63298;53.164;8.610;2023-05-19T07:56:37;7.80;;;2.00;;
74777;SDS011;63298;53.164;8.610;2023-05-19T07:59:02;8.07;;;1.90;;
74777;SDS011;63298;53.164;8.610;2023-05-19T08:01:28;10.02;;;2.40;;
74777;SDS011;63298;53.164;8.610;2023-05-19T08:03:54;3.92;;;1.52;;
74777;SDS011;63298;53.164;8.610;2023-05-19T08:06:19;7.88;;;1.85;;
74777;SDS011;63298;53.164;8.610;2023-05-19T08:08:44;5.78;;;2.15;;
74777;SDS011;63298;53.164;8.610;2023-05-19T08:11:10;5.03;;;1.77;;
74777;SDS011;63298;53.164;8.610;2023-05-19T08:13:35;9.43;;;2.10;;
74777;SDS011;63298;53.164;8.610;2023-05-19T08:16:00;6.60;;;2.28;;
74777;SDS011;63298;53.164;8.610;2023-05-19T08:18:25;5.22;;;2.28;;
74777;SDS011;63298;53.164;8.610;2023-05-19T08:20:51;3.92;;;1.90;;
74777;SDS011;63298;53.164;8.610;2023-05-19T08:23:16;8.45;;;2.10;;
74777;SDS011;63298;53.164;8.610;2023-05-19T08:25:42;5.38;;;1.90;;
74777;SDS011;63298;53.164;8.610;2023-05-19T08:28:08;5.07;;;1.88;;
74777;SDS011;63298;53.164;8.610;2023-05-19T08:30:34;7.72;;;2.17;;
74777;SDS011;63298;53.164;8.610;2023-05-19T08:32:59;7.95;;;1.80;;
74777;SDS011;63298;53.164;8.610;2023-05-19T08:35:25;9.13;;;2.58;;
74777;SDS011;63298;53.164;8.610;2023-05-19T08:37:50;7.47;;;2.13;;
74777;SDS011;63298;53.164;8.610;2023-05-19T08:40:15;8.38;;;2.15;;
74777;SDS011;63298;53.164;8.610;2023-05-19T08:42:43;5.13;;;1.70;;
74777;SDS011;63298;53.164;8.610;2023-05-19T08:45:09;9.50;;;2.20;;
74777;SDS011;63298;53.164;8.610;2023-05-19T08:47:34;9.15;;;1.90;;
74777;SDS011;63298;53.164;8.610;2023-05-19T08:50:04;4.50;;;1.58;;
74777;SDS011;63298;53.164;8.610;2023-05-19T08:55:28;10.35;;;2.15;;
74777;SDS011;63298;53.164;8.610;2023-05-19T08:57:58;5.45;;;2.05;;
74777;SDS011;63298;53.164;8.610;2023-05-19T09:00:25;11.77;;;2.38;;
74777;SDS011;63298;53.164;8.610;2023-05-19T09:02:51;5.25;;;1.80;;
74777;SDS011;63298;53.164;8.610;2023-05-19T09:05:17;3.17;;;1.48;;
74777;SDS011;63298;53.164;8.610;2023-05-19T09:07:43;5.70;;;1.80;;
74777;SDS011;63298;53.164;8.610;2023-05-19T09:10:09;5.10;;;1.65;;
74777;SDS011;63298;53.164;8.610;2023-05-19T09:12:34;4.18;;;1.52;;
74777;SDS011;63298;53.164;8.610;2023-05-19T09:15:00;4.63;;;1.80;;
74777;SDS011;63298;53.164;8.610;2023-05-19T09:17:26;7.70;;;2.00;;
74777;SDS011;63298;53.164;8.610;2023-05-19T09:19:51;5.25;;;1.40;;
74777;SDS011;63298;53.164;8.610;2023-05-19T09:22:17;5.30;;;1.67;;
74777;SDS011;63298;53.164;8.610;2023-05-19T09:24:42;8.43;;;2.03;;
74777;SDS011;63298;53.164;8.610;2023-05-19T09:27:07;7.03;;;1.73;;
74777;SDS011;63298;53.164;8.610;2023-05-19T09:29:33;3.88;;;1.70;;
74777;SDS011;63298;53.164;8.610;2023-05-19T09:31:58;5.15;;;1.88;;
74777;SDS011;63298;53.164;8.610;2023-05-19T09:34:23;7.20;;;2.15;;
74777;SDS011;63298;53.164;8.610;2023-05-19T09:36:49;5.57;;;1.60;;
74777;SDS011;63298;53.164;8.610;2023-05-19T09:39:15;4.43;;;1.80;;
74777;SDS011;63298;53.164;8.610;2023-05-19T09:41:42;3.50;;;1.60;;
74777;SDS011;63298;53.164;8.610;2023-05-19T09:44:11;5.63;;;1.73;;
74777;SDS011;63298;53.164;8.610;2023-05-19T09:46:37;6.20;;;1.70;;
74777;SDS011;63298;53.164;8.610;2023-05-19T09:49:09;4.43;;;1.60;;
74777;SDS011;63298;53.164;8.610;2023-05-19T09:51:39;9.15;;;1.50;;
74777;SDS011;63298;53.164;8.610;2023-05-19T09:54:05;4.82;;;1.67;;
74777;SDS011;63298;53.164;8.610;2023-05-19T09:56:34;6.55;;;1.30;;
74777;SDS011;63298;53.164;8.610;2023-05-19T09:59:00;6.07;;;1.65;;
74777;SDS011;63298;53.164;8.610;2023-05-19T10:01:27;4.07;;;1.65;;
74777;SDS011;63298;53.164;8.610;2023-05-19T10:03:54;13.00;;;1.83;;
74777;SDS011;63298;53.164;8.610;2023-05-19T10:06:20;8.40;;;1.27;;
74777;SDS011;63298;53.164;8.610;2023-05-19T10:08:46;6.60;;;1.95;;
74777;SDS011;63298;53.164;8.610;2023-05-19T10:11:13;4.70;;;1.80;;
74777;SDS011;63298;53.164;8.610;2023-05-19T10:13:41;3.00;;;1.20;;
74777;SDS011;63298;53.164;8.610;2023-05-19T10:16:07;5.93;;;1.48;;
74777;SDS011;63298;53.164;8.610;2023-05-19T10:18:33;3.97;;;1.55;;
74777;SDS011;63298;53.164;8.610;2023-05-19T10:20:59;4.57;;;1.58;;
74777;SDS011;63298;53.164;8.610;2023-05-19T10:23:26;4.40;;;1.20;;
74777;SDS011;63298;53.164;8.610;2023-05-19T10:25:52;4.55;;;1.00;;
74777;SDS011;63298;53.164;8.610;2023-05-19T10:28:20;3.75;;;1.35;;
74777;SDS011;63298;53.164;8.610;2023-05-19T10:30:49;4.97;;;1.50;;
74777;SDS011;63298;53.164;8.610;2023-05-19T10:33:18;2.88;;;1.17;;
74777;SDS011;63298;53.164;8.610;2023-05-19T10:46:50;3.42;;;1.40;;
74777;SDS011;63298;53.164;8.610;2023-05-19T10:49:19;3.00;;;1.02;;
74777;SDS011;63298;53.164;8.610;2023-05-19T10:51:45;5.80;;;1.73;;
74777;SDS011;63298;53.164;8.610;2023-05-19T10:54:10;4.80;;;1.10;;
74777;SDS011;63298;53.164;8.610;2023-05-19T10:56:37;6.35;;;1.40;;
74777;SDS011;63298;53.164;8.610;2023-05-19T10:59:03;6.15;;;1.38;;
74777;SDS011;63298;53.164;8.610;2023-05-19T11:01:32;4.35;;;1.17;;
74777;SDS011;63298;53.164;8.610;2023-05-19T11:04:06;2.03;;;1.20;;
74777;SDS011;63298;53.164;8.610;2023-05-19T11:06:33;3.00;;;1.10;;
74777;SDS011;63298;53.164;8.610;2023-05-19T11:11:45;3.60;;;1.10;;
74777;SDS011;63298;53.164;8.610;2023-05-19T11:14:13;7.93;;;1.02;;
74777;SDS011;63298;53.164;8.610;2023-05-19T11:16:46;4.38;;;1.27;;
74777;SDS011;63298;53.164;8.610;2023-05-19T11:19:16;3.63;;;1.15;;
74777;SDS011;63298;53.164;8.610;2023-05-19T11:22:08;3.72;;;1.10;;
74777;SDS011;63298;53.164;8.610;2023-05-19T11:24:44;4.65;;;1.20;;
74777;SDS011;63298;53.164;8.610;2023-05-19T11:29:48;3.42;;;1.40;;
74777;SDS011;63298;53.164;8.610;2023-05-19T11:32:15;3.15;;;1.40;;
74777;SDS011;63298;53.164;8.610;2023-05-19T11:34:41;5.50;;;1.23;;
74777;SDS011;63298;53.164;8.610;2023-05-19T11:37:08;5.10;;;1.38;;
74777;SDS011;63298;53.164;8.610;2023-05-19T11:39:33;5.00;;;1.20;;
74777;SDS011;63298;53.164;8.610;2023-05-19T11:41:59;4.60;;;1.50;;
74777;SDS011;63298;53.164;8.610;2023-05-19T11:44:25;3.13;;;1.40;;
74777;SDS011;63298;53.164;8.610;2023-05-19T11:46:50;5.20;;;1.30;;
74777;SDS011;63298;53.164;8.610;2023-05-19T11:49:15;8.10;;;1.70;;
74777;SDS011;63298;53.164;8.610;2023-05-19T11:51:44;2.70;;;1.38;;
74777;SDS011;63298;53.164;8.610;2023-05-19T11:54:10;2.28;;;0.90;;
74777;SDS011;63298;53.164;8.610;2023-05-19T11:56:42;3.33;;;1.13;;
74777;SDS011;63298;53.164;8.610;2023-05-19T11:59:08;1.90;;;0.90;;
74777;SDS011;63298;53.164;8.610;2023-05-19T12:01:34;5.40;;;1.00;;
74777;SDS011;63298;53.164;8.610;2023-05-19T12:04:00;5.28;;;1.58;;
74777;SDS011;63298;53.164;8.610;2023-05-19T12:06:26;5.45;;;1.42;;
74777;SDS011;63298;53.164;8.610;2023-05-19T12:08:55;6.18;;;1.80;;
74777;SDS011;63298;53.164;8.610;2023-05-19T12:11:21;6.35;;;1.13;;
74777;SDS011;63298;53.164;8.610;2023-05-19T12:13:47;4.90;;;0.95;;
74777;SDS011;63298;53.164;8.610;2023-05-19T12:16:13;3.17;;;0.80;;
74777;SDS011;63298;53.164;8.610;2023-05-19T12:18:39;6.32;;;1.20;;
74777;SDS011;63298;53.164;8.610;2023-05-19T12:21:04;1.80;;;0.85;;
74777;SDS011;63298;53.164;8.610;2023-05-19T12:23:30;1.65;;;0.90;;
74777;SDS011;63298;53.164;8.610;2023-05-19T12:26:00;5.38;;;1.52;;
74777;SDS011;63298;53.164;8.610;2023-05-19T12:28:28;4.18;;;1.30;;
74777;SDS011;63298;53.164;8.610;2023-05-19T12:30:54;3.00;;;0.85;;
74777;SDS011;63298;53.164;8.610;2023-05-19T12:33:20;2.65;;;1.00;;
74777;SDS011;63298;53.164;8.610;2023-05-19T12:35:45;5.35;;;1.35;;
74777;SDS011;63298;53.164;8.610;2023-05-19T12:38:12;3.80;;;1.20;;
74777;SDS011;63298;53.164;8.610;2023-05-19T12:40:38;3.00;;;1.20;;
74777;SDS011;63298;53.164;8.610;2023-05-19T12:43:04;2.28;;;1.20;;
74777;SDS011;63298;53.164;8.610;2023-05-19T12:45:33;3.85;;;1.20;;
74777;SDS011;63298;53.164;8.610;2023-05-19T12:48:03;6.75;;;1.25;;
74777;SDS011;63298;53.164;8.610;2023-05-19T12:50:29;12.45;;;1.33;;
74777;SDS011;63298;53.164;8.610;2023-05-19T12:52:55;3.03;;;1.00;;
74777;SDS011;63298;53.164;8.610;2023-05-19T12:55:20;4.85;;;1.35;;
74777;SDS011;63298;53.164;8.610;2023-05-19T12:57:49;1.90;;;0.88;;
74777;SDS011;63298;53.164;8.610;2023-05-19T13:00:17;2.78;;;1.00;;
74777;SDS011;63298;53.164;8.610;2023-05-19T13:02:53;2.47;;;1.20;;
74777;SDS011;63298;53.164;8.610;2023-05-19T13:05:33;22.02;;;1.73;;
74777;SDS011;63298;53.164;8.610;2023-05-19T13:08:04;7.43;;;1.33;;
74777;SDS011;63298;53.164;8.610;2023-05-19T13:10:30;4.88;;;1.45;;
74777;SDS011;63298;53.164;8.610;2023-05-19T13:12:56;6.18;;;1.35;;
74777;SDS011;63298;53.164;8.610;2023-05-19T13:15:23;7.60;;;1.38;;
74777;SDS011;63298;53.164;8.610;2023-05-19T13:17:49;2.40;;;0.98;;
74777;SDS011;63298;53.164;8.610;2023-05-19T13:20:15;4.47;;;1.00;;
74777;SDS011;63298;53.164;8.610;2023-05-19T13:22:40;2.80;;;1.20;;
74777;SDS011;63298;53.164;8.610;2023-05-19T13:25:06;3.05;;;1.20;;
74777;SDS011;63298;53.164;8.610;2023-05-19T13:27:31;5.28;;;1.45;;
74777;SDS011;63298;53.164;8.610;2023-05-19T13:29:57;2.80;;;1.02;;
74777;SDS011;63298;53.164;8.610;2023-05-19T13:32:22;1.35;;;1.00;;
74777;SDS011;63298;53.164;8.610;2023-05-19T13:34:48;8.93;;;1.13;;
74777;SDS011;63298;53.164;8.610;2023-05-19T13:37:13;3.00;;;1.08;;
74777;SDS011;63298;53.164;8.610;2023-05-19T13:39:38;4.72;;;1.20;;
74777;SDS011;63298;53.164;8.610;2023-05-19T13:42:03;3.60;;;1.05;;
74777;SDS011;63298;53.164;8.610;2023-05-19T13:44:29;1.13;;;0.98;;
74777;SDS011;63298;53.164;8.610;2023-05-19T13:46:54;3.55;;;1.10;;
74777;SDS011;63298;53.164;8.610;2023-05-19T13:49:20;3.70;;;1.08;;
74777;SDS011;63298;53.164;8.610;2023-05-19T13:51:45;2.20;;;1.00;;
74777;SDS011;63298;53.164;8.610;2023-05-19T13:54:10;3.53;;;1.20;;
74777;SDS011;63298;53.164;8.610;2023-05-19T13:56:35;3.25;;;1.13;;
74777;SDS011;63298;53.164;8.610;2023-05-19T13:59:01;6.55;;;1.65;;
74777;SDS011;63298;53.164;8.610;2023-05-19T14:01:27;5.28;;;1.30;;
74777;SDS011;63298;53.164;8.610;2023-05-19T14:03:52;3.55;;;1.17;;
74777;SDS011;63298;53.164;8.610;2023-05-19T14:06:17;3.97;;;1.50;;
74777;SDS011;63298;53.164;8.610;2023-05-19T14:08:43;4.90;;;1.30;;
74777;SDS011;63298;53.164;8.610;2023-05-19T14:11:09;4.35;;;1.45;;
74777;SDS011;63298;53.164;8.610;2023-05-19T14:13:34;5.20;;;1.15;;
74777;SDS011;63298;53.164;8.610;2023-05-19T14:16:00;2.58;;;1.30;;
74777;SDS011;63298;53.164;8.610;2023-05-19T14:18:25;10.30;;;1.40;;
74777;SDS011;63298;53.164;8.610;2023-05-19T14:20:50;3.10;;;1.00;;
74777;SDS011;63298;53.164;8.610;2023-05-19T14:23:15;3.63;;;1.10;;
74777;SDS011;63298;53.164;8.610;2023-05-19T14:25:41;3.72;;;1.15;;
74777;SDS011;63298;53.164;8.610;2023-05-19T14:28:06;2.35;;;1.10;;
74777;SDS011;63298;53.164;8.610;2023-05-19T14:30:32;3.40;;;2.22;;
74777;SDS011;63298;53.164;8.610;2023-05-19T14:32:57;7.10;;;1.33;;
74777;SDS011;63298;53.164;8.610;2023-05-19T14:35:23;3.78;;;1.40;;
74777;SDS011;63298;53.164;8.610;2023-05-19T14:37:48;4.63;;;1.60;;
74777;SDS011;63298;53.164;8.610;2023-05-19T14:40:14;4.97;;;1.60;;
74777;SDS011;63298;53.164;8.610;2023-05-19T14:42:40;3.42;;;1.33;;
74777;SDS011;63298;53.164;8.610;2023-05-19T14:45:05;7.20;;;1.38;;
74777;SDS011;63298;53.164;8.610;2023-05-19T14:47:31;4.63;;;1.30;;
74777;SDS011;63298;53.164;8.610;2023-05-19T14:49:56;1.85;;;1.05;;
74777;SDS011;63298;53.164;8.610;2023-05-19T14:52:22;2.58;;;1.65;;
74777;SDS011;63298;53.164;8.610;2023-05-19T14:54:47;3.67;;;1.60;;
74777;SDS011;63298;53.164;8.610;2023-05-19T14:57:12;6.90;;;1.15;;
74777;SDS011;63298;53.164;8.610;2023-05-19T14:59:37;2.25;;;1.13;;
74777;SDS011;63298;53.164;8.610;2023-05-19T15:02:03;2.55;;;0.90;;
74777;SDS011;63298;53.164;8.610;2023-05-19T15:04:29;1.83;;;0.93;;
74777;SDS011;63298;53.164;8.610;2023-05-19T15:06:54;1.05;;;0.80;;
74777;SDS011;63298;53.164;8.610;2023-05-19T15:09:19;2.50;;;1.20;;
74777;SDS011;63298;53.164;8.610;2023-05-19T15:11:45;1.83;;;1.23;;
74777;SDS011;63298;53.164;8.610;2023-05-19T15:14:10;3.28;;;1.10;;
74777;SDS011;63298;53.164;8.610;2023-05-19T15:16:36;2.72;;;1.10;;
74777;SDS011;63298;53.164;8.610;2023-05-19T15:19:01;2.92;;;1.58;;
74777;SDS011;63298;53.164;8.610;2023-05-19T15:21:26;4.22;;;1.10;;
74777;SDS011;63298;53.164;8.610;2023-05-19T15:23:51;5.87;;;1.20;;